createdAt,value
2018-12-10T00:02:13.567Z,87.46
2018-12-10T00:04:50.873Z,87.53
2018-12-10T00:07:28.221Z,87.40
2018-12-10T00:10:03.765Z,87.52
2018-12-10T00:12:39.024Z,87.50
2018-12-10T00:15:14.800Z,88.14
2018-12-10T00:17:50.005Z,87.13
2018-12-10T00:20:25.277Z,87.16
2018-12-10T00:23:00.623Z,87.15
2018-12-10T00:25:36.114Z,87.22
2018-12-10T00:28:11.319Z,86.86
2018-12-10T00:30:46.570Z,87.15
2018-12-10T00:33:21.949Z,87.10
2018-12-10T00:35:57.272Z,86.79
2018-12-10T00:38:32.615Z,87.17
2018-12-10T00:41:07.965Z,87.39
2018-12-10T00:43:43.166Z,86.66
2018-12-10T00:46:18.644Z,86.98
2018-12-10T00:48:53.928Z,87.12
2018-12-10T00:51:29.217Z,86.47
2018-12-10T00:54:04.509Z,86.65
2018-12-10T00:56:39.880Z,86.74
2018-12-10T00:59:15.331Z,86.62
2018-12-10T01:01:50.597Z,87.02
2018-12-10T01:04:25.849Z,86.99
2018-12-10T01:07:01.301Z,87.28
2018-12-10T01:09:36.593Z,87.07
2018-12-10T01:12:11.950Z,87.16
2018-12-10T01:14:47.193Z,87.14
2018-12-10T01:17:22.379Z,86.87
2018-12-10T01:19:58.796Z,87.01
2018-12-10T01:22:34.167Z,86.66
2018-12-10T01:25:09.612Z,86.37
2018-12-10T01:27:45.001Z,87.02
2018-12-10T01:30:20.360Z,87.40
2018-12-10T01:32:55.864Z,87.70
2018-12-10T01:35:31.126Z,87.01
2018-12-10T01:38:06.373Z,87.31
2018-12-10T01:40:41.710Z,86.98
2018-12-10T01:43:17.077Z,86.99
2018-12-10T01:45:52.347Z,87.59
2018-12-10T01:48:27.600Z,87.20
2018-12-10T01:51:02.987Z,87.82
2018-12-10T01:53:38.269Z,87.71
2018-12-10T01:56:13.611Z,87.34
2018-12-10T01:58:48.855Z,87.41
2018-12-10T02:01:24.285Z,87.35
2018-12-10T02:03:59.832Z,87.85
2018-12-10T02:06:35.172Z,87.86
2018-12-10T02:09:10.494Z,87.43
2018-12-10T02:11:45.671Z,88.03
2018-12-10T02:14:20.884Z,87.55
2018-12-10T02:16:56.381Z,87.89
2018-12-10T02:19:32.050Z,87.34
2018-12-10T02:22:08.364Z,87.89
2018-12-10T02:24:44.621Z,87.89
2018-12-10T02:27:19.983Z,87.53
2018-12-10T02:29:55.330Z,87.38
2018-12-10T02:32:30.634Z,86.99
2018-12-10T02:35:06.010Z,86.70
2018-12-10T02:37:41.347Z,86.23
2018-12-10T02:40:16.549Z,86.21
2018-12-10T02:42:51.811Z,85.81
2018-12-10T02:45:32.212Z,86.47
2018-12-10T02:48:07.608Z,85.69
2018-12-10T02:50:42.998Z,85.83
2018-12-10T02:53:18.189Z,86.21
2018-12-10T02:58:59.643Z,86.86
2018-12-10T03:01:35.096Z,87.45
2018-12-10T03:04:10.497Z,87.41
2018-12-10T03:06:45.948Z,87.53
2018-12-10T03:09:21.363Z,86.90
2018-12-10T03:11:56.996Z,87.18
2018-12-10T03:14:32.193Z,87.30
2018-12-10T03:17:07.445Z,87.45
2018-12-10T03:19:42.655Z,86.87
2018-12-10T03:22:18.205Z,86.59
2018-12-10T03:24:53.587Z,86.72
2018-12-10T03:27:29.909Z,87.28
2018-12-10T03:30:05.545Z,86.62
2018-12-10T03:32:40.742Z,86.40
2018-12-10T03:35:16.102Z,86.51
2018-12-10T03:37:51.413Z,85.96
2018-12-10T03:40:30.675Z,85.93
2018-12-10T03:43:12.189Z,85.30
2018-12-10T03:48:59.555Z,85.58
2018-12-10T03:51:44.647Z,85.65
2018-12-10T03:54:25.380Z,85.49
2018-12-10T03:57:02.558Z,85.79
2018-12-10T03:59:41.766Z,86.05
2018-12-10T04:05:24.232Z,86.17
2018-12-10T04:08:03.553Z,86.53
2018-12-10T04:10:45.184Z,86.61
2018-12-10T04:13:26.672Z,85.88
2018-12-10T04:19:07.464Z,85.87
2018-12-10T04:24:55.059Z,85.42
2018-12-10T04:27:34.189Z,85.59
2018-12-10T04:30:12.964Z,85.67
2018-12-10T04:32:52.053Z,86.04
2018-12-10T04:35:30.454Z,86.05
2018-12-10T04:38:11.804Z,85.56
2018-12-10T04:40:47.152Z,85.69
2018-12-10T04:43:25.405Z,85.45
2018-12-10T04:46:00.625Z,84.89
2018-12-10T04:48:39.571Z,84.46
2018-12-10T04:51:18.530Z,84.60
2018-12-10T04:53:57.754Z,84.78
2018-12-10T04:56:33.189Z,85.15
2018-12-10T04:59:12.407Z,84.76
2018-12-10T05:01:53.085Z,84.90
2018-12-10T05:04:34.034Z,85.03
2018-12-10T05:07:12.662Z,85.88
2018-12-10T05:09:51.679Z,86.03
2018-12-10T05:12:45.329Z,86.25
2018-12-10T05:15:32.684Z,87.31
2018-12-10T05:18:13.686Z,87.71
2018-12-10T05:20:54.801Z,87.29
2018-12-10T05:26:36.340Z,86.94
2018-12-10T05:29:15.404Z,87.05
2018-12-10T05:31:54.601Z,86.81
2018-12-10T05:34:36.177Z,86.88
2018-12-10T05:37:17.319Z,87.13
2018-12-10T05:39:56.006Z,86.81
2018-12-10T05:42:37.573Z,87.36
2018-12-10T05:48:18.581Z,87.29
2018-12-10T05:51:00.930Z,87.77
2018-12-10T05:53:39.692Z,87.89
2018-12-10T05:56:18.886Z,88.03
2018-12-10T05:59:00.409Z,88.21
2018-12-10T06:01:41.744Z,87.89
2018-12-10T06:04:20.523Z,87.94
2018-12-10T06:06:55.906Z,88.22
2018-12-10T06:09:37.202Z,88.26
2018-12-10T06:12:12.424Z,88.39
2018-12-10T06:14:50.905Z,88.29
2018-12-10T06:17:32.337Z,88.37
2018-12-10T06:20:11.484Z,87.96
2018-12-10T06:25:21.792Z,87.47
2018-12-10T06:28:00.448Z,87.03
2018-12-10T06:30:42.102Z,87.24
2018-12-10T06:33:21.058Z,86.21
2018-12-10T06:36:00.251Z,85.93
2018-12-10T06:38:41.662Z,85.53
2018-12-10T06:41:20.245Z,85.59
2018-12-10T06:43:59.313Z,85.28
2018-12-10T06:46:40.569Z,84.86
2018-12-10T06:49:22.673Z,85.06
2018-12-10T06:52:01.389Z,84.54
2018-12-10T06:54:40.502Z,84.60
2018-12-10T06:57:22.011Z,83.67
2018-12-10T07:00:00.778Z,83.82
2018-12-10T07:02:40.029Z,84.01
2018-12-10T07:05:19.241Z,84.06
2018-12-10T07:08:00.549Z,82.89
2018-12-10T07:10:41.690Z,82.59
2018-12-10T07:13:23.889Z,82.39
2018-12-10T07:16:05.009Z,82.93
2018-12-10T07:18:46.959Z,83.33
2018-12-10T07:21:28.063Z,83.68
2018-12-10T07:24:09.075Z,83.66
2018-12-10T07:26:47.881Z,84.24
2018-12-10T07:29:29.406Z,84.59
2018-12-10T07:35:11.216Z,85.42
2018-12-10T07:37:52.358Z,84.87
2018-12-10T07:40:33.354Z,85.43
2018-12-10T07:43:14.201Z,85.86
2018-12-10T07:45:55.443Z,86.05
2018-12-10T07:48:36.669Z,85.91
2018-12-10T07:51:21.710Z,86.02
2018-12-10T07:54:02.926Z,86.21
2018-12-10T07:56:44.168Z,86.01
2018-12-10T07:59:25.241Z,86.08
2018-12-10T08:02:06.212Z,85.21
2018-12-10T08:04:47.234Z,85.35
2018-12-10T08:07:34.947Z,85.66
2018-12-10T08:13:16.257Z,85.78
2018-12-10T08:15:57.907Z,85.48
2018-12-10T08:18:38.824Z,85.36
2018-12-10T08:21:17.637Z,85.89
2018-12-10T08:23:59.168Z,85.46
2018-12-10T08:26:40.477Z,85.08
2018-12-10T08:32:24.593Z,84.75
2018-12-10T08:35:05.802Z,84.50
2018-12-10T08:37:47.196Z,84.26
2018-12-10T08:40:26.067Z,84.21
2018-12-10T08:43:07.702Z,84.20
2018-12-10T08:45:48.564Z,84.57
2018-12-10T08:48:29.696Z,84.42
2018-12-10T08:51:08.399Z,83.45
2018-12-10T08:53:47.662Z,83.62
2018-12-10T08:56:28.357Z,83.81
2018-12-10T08:59:10.027Z,83.53
2018-12-10T09:01:49.319Z,83.49
2018-12-10T09:04:30.198Z,82.28
2018-12-10T09:07:12.986Z,82.60
2018-12-10T09:09:54.508Z,82.41
2018-12-10T09:12:35.856Z,81.70
2018-12-10T09:15:12.912Z,81.84
2018-12-10T09:17:51.951Z,82.41
2018-12-10T09:20:34.452Z,82.18
2018-12-10T09:23:11.160Z,82.48
2018-12-10T09:25:50.375Z,82.41
2018-12-10T09:28:31.152Z,82.33
2018-12-10T09:31:16.305Z,82.01
2018-12-10T09:33:58.524Z,81.67
2018-12-10T09:36:51.839Z,81.93
2018-12-10T09:39:32.925Z,81.53
2018-12-10T09:42:08.226Z,81.69
2018-12-10T09:44:55.859Z,80.78
2018-12-10T09:47:31.482Z,80.41
2018-12-10T09:50:07.697Z,81.45
2018-12-10T09:52:48.868Z,82.04
2018-12-10T09:55:41.879Z,82.51
2018-12-10T09:58:17.096Z,83.43
2018-12-10T10:00:53.443Z,83.01
2018-12-10T10:03:28.817Z,82.72
2018-12-10T10:06:04.070Z,82.33
2018-12-10T10:08:39.502Z,82.05
2018-12-10T10:11:14.855Z,81.76
2018-12-10T10:13:50.257Z,81.04
2018-12-10T10:16:25.627Z,80.35
2018-12-10T10:19:00.986Z,80.25
2018-12-10T10:21:36.309Z,80.07
2018-12-10T10:24:11.636Z,79.30
2018-12-10T10:26:47.008Z,78.65
2018-12-10T10:29:22.411Z,79.56
2018-12-10T10:31:57.646Z,80.06
2018-12-10T10:34:33.076Z,80.09
2018-12-10T10:37:08.379Z,80.97
2018-12-10T10:39:43.864Z,81.00
2018-12-10T10:42:21.294Z,80.93
2018-12-10T10:44:57.006Z,81.37
2018-12-10T10:47:32.382Z,80.51
2018-12-10T10:50:08.894Z,80.37
2018-12-10T10:52:45.317Z,79.70
2018-12-10T10:55:20.674Z,80.07
2018-12-10T10:57:56.060Z,79.13
2018-12-10T11:00:36.399Z,79.22
2018-12-10T11:03:17.144Z,78.65
2018-12-10T11:05:52.298Z,79.00
2018-12-10T11:08:27.792Z,78.17
2018-12-10T11:11:03.270Z,78.84
2018-12-10T11:13:38.642Z,78.59
2018-12-10T11:16:14.028Z,78.12
2018-12-10T11:18:49.420Z,78.00
2018-12-10T11:21:24.810Z,78.37
2018-12-10T11:24:00.114Z,78.20
2018-12-10T11:26:35.464Z,77.99
2018-12-10T11:29:10.839Z,77.42
2018-12-10T11:31:46.136Z,76.98
2018-12-10T11:34:21.517Z,76.05
2018-12-10T11:36:57.103Z,75.79
2018-12-10T11:39:32.405Z,75.50
2018-12-10T11:42:07.900Z,75.80
2018-12-10T11:44:43.316Z,76.10
2018-12-10T11:47:18.608Z,76.35
2018-12-10T11:49:53.955Z,76.28
2018-12-10T11:52:29.392Z,75.56
2018-12-10T11:55:05.164Z,75.27
2018-12-10T11:57:46.090Z,75.63
2018-12-10T12:00:21.579Z,75.84
2018-12-10T12:02:57.111Z,75.98
2018-12-10T12:05:32.314Z,76.11
2018-12-10T12:08:07.666Z,77.70
2018-12-10T12:10:42.929Z,78.16
2018-12-10T12:13:28.374Z,78.86
2018-12-10T12:16:09.814Z,79.59
2018-12-10T14:10:21.674Z,83.84
2018-12-10T15:11:55.016Z,87.87
2018-12-10T15:14:30.453Z,88.20
2018-12-10T15:17:05.735Z,88.24
2018-12-10T15:19:42.401Z,87.79
2018-12-10T15:22:18.229Z,87.62
2018-12-10T15:41:04.947Z,86.74
2018-12-10T15:43:46.509Z,86.37
2018-12-10T15:46:31.357Z,87.09
2018-12-10T15:49:06.583Z,86.71
2018-12-10T15:51:44.998Z,87.06
2018-12-10T15:54:26.529Z,86.88
2018-12-10T15:57:05.159Z,86.97
2018-12-10T15:59:49.089Z,86.90
2018-12-10T16:05:30.964Z,86.97
2018-12-10T16:11:17.842Z,87.16
2018-12-10T16:13:56.185Z,87.14
2018-12-10T16:16:37.567Z,86.85
2018-12-10T16:19:18.463Z,86.55
2018-12-10T16:21:57.583Z,86.40
2018-12-10T16:24:38.879Z,86.14
2018-12-10T16:30:26.367Z,86.32
2018-12-10T16:33:15.717Z,86.12
2018-12-10T16:35:51.649Z,85.83
2018-12-10T16:38:30.652Z,86.39
2018-12-10T16:41:17.996Z,85.72
2018-12-10T16:43:58.841Z,85.99
2018-12-10T16:46:37.446Z,86.38
2018-12-10T16:49:18.746Z,87.30
2018-12-10T16:52:00.069Z,87.06
2018-12-10T16:54:38.652Z,87.16
2018-12-10T16:57:21.007Z,87.53
2018-12-10T17:00:02.033Z,88.06
2018-12-10T17:02:45.039Z,88.61
2018-12-10T17:05:30.729Z,88.00
2018-12-10T17:08:15.902Z,88.30
2018-12-10T17:16:57.494Z,88.21
2018-12-10T17:19:36.555Z,88.59
2018-12-10T17:22:18.144Z,88.43
2018-12-10T17:24:59.010Z,88.00
2018-12-10T17:27:48.177Z,87.88
2018-12-10T17:33:24.464Z,88.12
2018-12-10T17:36:00.778Z,88.05
2018-12-10T17:38:36.171Z,88.67
2018-12-10T17:41:10.819Z,88.59
2018-12-10T17:43:55.041Z,88.64
2018-12-10T17:46:26.093Z,88.70
2018-12-10T17:48:56.383Z,88.48
2018-12-10T17:51:26.398Z,89.03
2018-12-10T17:53:57.071Z,88.31
2018-12-10T17:56:35.477Z,88.37
2018-12-10T17:59:06.136Z,88.12
2018-12-10T18:01:37.230Z,88.09
2018-12-10T18:04:19.654Z,88.06
2018-12-10T18:06:49.685Z,87.52
2018-12-10T18:09:19.746Z,87.43
2018-12-10T18:11:59.613Z,87.78
2018-12-10T18:14:32.479Z,87.27
2018-12-10T18:17:02.584Z,87.21
2018-12-10T18:19:57.259Z,86.83
2018-12-10T18:22:44.117Z,87.34
2018-12-10T18:25:28.705Z,87.45
2018-12-10T18:27:59.004Z,86.81
2018-12-10T18:30:30.121Z,87.09
2018-12-10T18:33:11.617Z,87.80
2018-12-10T18:36:04.159Z,87.46
2018-12-10T18:41:28.873Z,88.02
2018-12-10T18:44:00.423Z,87.99
2018-12-10T18:46:30.894Z,87.68
2018-12-10T18:49:01.013Z,88.08
2018-12-10T18:51:31.210Z,87.63
2018-12-10T18:54:23.634Z,87.64
2018-12-10T18:56:53.597Z,88.13
2018-12-10T18:59:25.631Z,88.06
2018-12-10T19:02:02.875Z,87.75
2018-12-10T19:04:32.990Z,87.59
2018-12-10T19:07:03.401Z,87.78
2018-12-10T19:09:33.405Z,87.52
2018-12-10T19:12:04.618Z,88.16
2018-12-10T19:14:34.833Z,88.24
2018-12-10T19:17:05.218Z,88.08
2018-12-10T19:19:36.571Z,88.36
2018-12-10T19:22:07.686Z,88.75
2018-12-10T19:24:37.997Z,89.07
2018-12-10T19:27:08.037Z,88.91
2018-12-10T19:29:38.476Z,89.39
2018-12-10T19:32:08.367Z,89.61
2018-12-10T19:37:21.618Z,89.96
2018-12-10T19:39:51.662Z,89.63
2018-12-10T19:42:21.811Z,89.94
2018-12-10T19:44:51.781Z,90.01
2018-12-10T19:47:21.992Z,90.32
2018-12-10T19:49:52.038Z,89.98
2018-12-10T19:52:22.233Z,90.81
2018-12-10T19:54:53.578Z,90.31
2018-12-10T19:57:23.626Z,90.13
2018-12-10T19:59:55.623Z,90.46
2018-12-10T20:02:38.519Z,90.39
2018-12-10T20:05:21.999Z,90.36
2018-12-10T20:07:58.188Z,90.38
2018-12-10T20:10:46.614Z,89.93
2018-12-10T20:13:36.609Z,89.79
2018-12-10T20:19:17.108Z,90.24
2018-12-10T20:21:52.038Z,90.06
2018-12-10T20:24:34.163Z,89.78
2018-12-10T20:27:17.903Z,89.41
2018-12-10T20:29:58.741Z,88.97
2018-12-10T20:32:29.910Z,89.11
2018-12-10T20:35:08.403Z,88.26
2018-12-10T20:37:46.669Z,88.68
2018-12-10T20:46:28.234Z,88.09
2018-12-10T20:49:06.025Z,87.62
2018-12-10T20:51:56.171Z,87.89
2018-12-10T20:54:26.433Z,87.83
2018-12-10T20:56:58.470Z,87.84
2018-12-10T20:59:30.242Z,88.12
2018-12-10T21:02:00.320Z,88.17
2018-12-10T21:04:40.379Z,88.30
2018-12-10T21:07:11.538Z,88.06
2018-12-10T21:09:41.610Z,88.87
2018-12-10T21:12:13.201Z,88.36
2018-12-10T21:14:43.303Z,88.07
2018-12-10T21:17:16.779Z,88.14
2018-12-10T21:19:54.697Z,88.24
2018-12-10T21:22:24.805Z,88.29
2018-12-10T21:25:00.209Z,88.53
2018-12-10T21:27:33.290Z,88.51
2018-12-10T21:30:03.749Z,88.39
2018-12-10T21:32:46.018Z,87.95
2018-12-10T21:35:17.745Z,88.50
2018-12-10T21:37:48.054Z,88.05
2018-12-10T21:40:18.209Z,88.35
2018-12-10T21:42:48.383Z,88.29
2018-12-10T21:45:29.362Z,87.89
2018-12-10T21:48:05.079Z,87.37
2018-12-10T21:50:36.999Z,86.96
2018-12-10T21:53:12.386Z,86.92
2018-12-10T21:55:47.015Z,86.46
2018-12-10T21:58:22.788Z,85.75
2018-12-10T22:01:04.622Z,86.47
2018-12-10T22:03:34.629Z,86.13
2018-12-10T22:06:04.931Z,86.41
2018-12-10T22:08:34.970Z,86.25
2018-12-10T22:11:27.334Z,86.11
2018-12-10T22:13:57.397Z,86.23
2018-12-10T22:16:27.705Z,86.74
2018-12-10T22:18:57.917Z,86.64
2018-12-10T22:21:28.301Z,86.81
2018-12-10T22:24:08.528Z,87.75
2018-12-10T22:26:38.515Z,87.58
2018-12-10T22:29:08.562Z,88.46
2018-12-10T22:31:38.702Z,87.95
2018-12-10T22:34:10.561Z,88.07
2018-12-10T22:36:40.690Z,88.05
2018-12-10T22:39:11.325Z,87.28
2018-12-10T22:41:52.746Z,86.43
2018-12-10T22:44:23.020Z,85.77
2018-12-10T22:46:53.061Z,85.40
2018-12-10T22:49:24.178Z,84.92
2018-12-10T22:51:54.135Z,85.36
2018-12-10T22:54:27.593Z,85.38
2018-12-10T22:56:57.725Z,85.77
2018-12-10T22:59:31.783Z,85.76
2018-12-10T23:02:01.802Z,86.16
2018-12-10T23:04:31.713Z,86.12
2018-12-10T23:07:01.726Z,86.26
2018-12-10T23:09:31.753Z,86.24
2018-12-10T23:12:07.541Z,86.75
2018-12-10T23:14:37.665Z,87.08
2018-12-10T23:17:07.927Z,86.58
2018-12-10T23:19:37.949Z,86.86
2018-12-10T23:22:07.979Z,86.54
2018-12-10T23:24:37.977Z,86.98
2018-12-10T23:27:19.357Z,87.44
2018-12-10T23:29:51.187Z,87.18
2018-12-10T23:32:27.257Z,87.46
2018-12-10T23:34:57.365Z,87.49
2018-12-10T23:37:27.205Z,87.46
2018-12-10T23:39:58.314Z,87.63
2018-12-10T23:42:28.689Z,87.01
2018-12-10T23:44:58.823Z,87.55
2018-12-10T23:47:30.612Z,87.08
2018-12-10T23:50:00.586Z,87.34
2018-12-10T23:52:31.523Z,86.62
2018-12-10T23:55:01.508Z,86.05
2018-12-10T23:57:31.497Z,85.74
